createdAt,value
2018-05-18T00:03:24.741Z,97.40
2018-05-18T00:07:28.249Z,97.70
2018-05-18T00:11:31.755Z,97.80
2018-05-18T00:15:35.243Z,97.90
2018-05-18T00:19:38.134Z,97.90
2018-05-18T00:23:40.881Z,97.90
2018-05-18T00:27:43.663Z,97.90
2018-05-18T00:31:47.158Z,98.00
2018-05-18T00:35:49.978Z,98.00
2018-05-18T00:39:53.614Z,97.90
2018-05-18T00:43:57.075Z,98.00
2018-05-18T00:47:59.969Z,97.90
2018-05-18T00:52:03.461Z,98.20
2018-05-18T00:56:06.358Z,98.20
2018-05-18T01:00:09.087Z,98.30
2018-05-18T01:04:11.838Z,98.20
2018-05-18T01:08:14.581Z,98.40
2018-05-18T01:12:17.316Z,98.30
2018-05-18T01:16:20.789Z,98.10
2018-05-18T01:20:23.672Z,98.10
2018-05-18T01:24:26.399Z,98.10
2018-05-18T01:28:29.178Z,98.40
2018-05-18T01:32:31.954Z,98.20
2018-05-18T01:36:34.774Z,98.30
2018-05-18T01:40:37.477Z,98.40
2018-05-18T01:44:40.376Z,98.40
2018-05-18T01:48:43.264Z,98.30
2018-05-18T01:52:46.061Z,98.40
2018-05-18T01:56:48.992Z,98.40
2018-05-18T02:00:51.815Z,98.50
2018-05-18T02:04:55.499Z,98.60
2018-05-18T02:08:58.227Z,98.60
2018-05-18T02:13:02.247Z,98.70
2018-05-18T02:17:05.149Z,98.70
2018-05-18T02:21:08.745Z,98.70
2018-05-18T02:25:11.473Z,98.60
2018-05-18T02:29:14.422Z,98.60
2018-05-18T02:33:17.168Z,98.60
2018-05-18T02:37:20.051Z,98.60
2018-05-18T02:41:22.815Z,98.70
2018-05-18T02:45:25.594Z,98.70
2018-05-18T02:49:28.430Z,98.50
2018-05-18T02:53:31.187Z,98.50
2018-05-18T02:57:33.940Z,98.60
2018-05-18T03:01:36.761Z,98.70
2018-05-18T03:05:39.561Z,98.60
2018-05-18T03:09:42.309Z,98.70
2018-05-18T03:13:45.041Z,98.70
2018-05-18T03:17:48.655Z,98.60
2018-05-18T03:21:52.144Z,98.70
2018-05-18T03:25:54.916Z,98.70
2018-05-18T03:29:57.651Z,98.70
2018-05-18T03:34:00.428Z,98.70
2018-05-18T03:38:03.299Z,99.20
2018-05-18T03:42:06.092Z,99.20
2018-05-18T03:46:08.814Z,99.20
2018-05-18T03:50:11.652Z,99.30
2018-05-18T03:54:15.133Z,99.20
2018-05-18T03:58:17.999Z,99.10
2018-05-18T04:02:32.830Z,99.30
2018-05-18T04:06:48.516Z,99.30
2018-05-18T04:10:51.984Z,99.20
2018-05-18T04:14:56.063Z,99.20
2018-05-18T04:18:59.553Z,99.30
2018-05-18T04:23:02.437Z,99.20
2018-05-18T04:27:05.449Z,99.30
2018-05-18T04:31:08.269Z,98.80
2018-05-18T04:35:11.764Z,98.80
2018-05-18T04:39:14.471Z,98.80
2018-05-18T04:43:17.448Z,98.70
2018-05-18T04:47:27.693Z,99.20
2018-05-18T04:51:30.393Z,98.70
2018-05-18T04:55:33.125Z,98.30
2018-05-18T04:59:35.851Z,97.90
2018-05-18T05:03:38.576Z,97.70
2018-05-18T05:07:42.884Z,95.40
2018-05-18T05:11:48.796Z,95.70
2018-05-18T05:15:51.831Z,94.30
2018-05-18T05:19:56.214Z,93.60
2018-05-18T05:23:59.247Z,93.60
2018-05-18T05:28:05.903Z,93.60
2018-05-18T05:32:08.991Z,93.90
2018-05-18T05:36:13.061Z,92.30
2018-05-18T05:40:15.765Z,92.30
2018-05-18T05:44:18.500Z,92.00
2018-05-18T05:48:21.232Z,88.30
2018-05-18T05:52:24.816Z,74.40
2018-05-18T05:56:27.713Z,74.50
2018-05-18T06:00:30.613Z,73.40
2018-05-18T06:04:34.581Z,77.20
2018-05-18T06:08:39.030Z,73.70
2018-05-18T06:12:45.159Z,68.40
2018-05-18T06:16:48.929Z,68.30
2018-05-18T06:20:52.309Z,67.30
2018-05-18T06:24:55.638Z,64.50
2018-05-18T06:28:58.406Z,64.90
2018-05-18T06:33:02.115Z,63.80
2018-05-18T06:37:04.866Z,61.10
2018-05-18T06:41:08.526Z,61.90
2018-05-18T06:45:13.562Z,60.60
2018-05-18T06:49:16.380Z,60.60
2018-05-18T06:53:20.289Z,60.60
2018-05-18T06:57:23.656Z,62.90
2018-05-18T07:01:27.501Z,61.90
2018-05-18T07:05:30.964Z,62.00
2018-05-18T07:09:33.882Z,61.40
2018-05-18T07:13:36.820Z,59.70
2018-05-18T07:17:40.882Z,57.30
2018-05-18T07:21:43.740Z,57.20
2018-05-18T07:25:46.578Z,52.10
2018-05-18T07:29:49.308Z,54.70
2018-05-18T07:33:52.049Z,53.20
2018-05-18T07:37:54.805Z,53.10
2018-05-18T07:41:57.500Z,52.60
2018-05-18T07:46:00.237Z,52.30
2018-05-18T07:50:03.074Z,53.70
2018-05-18T07:54:05.805Z,54.10
2018-05-18T07:58:08.602Z,56.10
2018-05-18T08:02:12.125Z,54.50
2018-05-18T08:06:15.602Z,54.30
2018-05-18T08:10:18.348Z,54.30
2018-05-18T08:14:21.080Z,54.50
2018-05-18T08:18:24.806Z,52.50
2018-05-18T08:22:29.001Z,52.40
2018-05-18T08:26:32.915Z,46.90
2018-05-18T08:30:48.344Z,50.30
2018-05-18T08:34:51.550Z,50.10
2018-05-18T08:39:00.060Z,45.10
2018-05-18T08:43:05.444Z,43.70
2018-05-18T08:47:09.357Z,45.50
2018-05-18T08:51:12.184Z,45.60
2018-05-18T08:55:15.646Z,46.30
2018-05-18T08:59:19.385Z,47.30
2018-05-18T09:03:22.170Z,46.10
2018-05-18T09:07:25.453Z,50.40
2018-05-18T09:11:29.279Z,45.60
2018-05-18T09:15:32.114Z,45.40
2018-05-18T09:19:35.568Z,48.20
2018-05-18T09:23:40.171Z,49.60
2018-05-18T09:27:44.096Z,50.90
2018-05-18T09:31:46.814Z,50.10
2018-05-18T09:35:49.523Z,50.10
2018-05-18T09:39:53.114Z,53.80
2018-05-18T09:43:55.796Z,53.70
2018-05-18T09:47:58.502Z,56.80
2018-05-18T09:52:01.346Z,57.10
2018-05-18T09:56:04.110Z,58.90
2018-05-18T10:00:06.882Z,60.70
2018-05-18T10:04:09.617Z,64.50
2018-05-18T10:08:13.826Z,61.90
2018-05-18T10:12:17.315Z,61.80
2018-05-18T10:16:20.759Z,60.30
2018-05-18T10:20:23.592Z,60.20
2018-05-18T10:24:26.290Z,56.10
2018-05-18T10:28:29.013Z,55.10
2018-05-18T10:32:31.762Z,58.70
2018-05-18T10:36:35.339Z,51.60
2018-05-18T10:40:38.086Z,51.60
2018-05-18T10:44:40.884Z,49.30
2018-05-18T10:48:44.376Z,49.00
2018-05-18T10:52:47.285Z,49.10
2018-05-18T10:56:50.842Z,46.90
2018-05-18T11:00:53.579Z,46.90
2018-05-18T11:04:56.461Z,48.40
2018-05-18T11:09:00.285Z,46.00
2018-05-18T11:13:03.078Z,46.40
2018-05-18T11:17:05.830Z,46.00
2018-05-18T11:21:08.544Z,48.70
2018-05-18T11:25:11.255Z,50.30
2018-05-18T11:29:14.089Z,47.30
2018-05-18T11:33:16.815Z,48.00
2018-05-18T11:37:20.316Z,46.50
2018-05-18T11:41:23.143Z,46.60
2018-05-18T11:45:25.839Z,47.30
2018-05-18T11:49:29.372Z,43.10
2018-05-18T11:53:35.056Z,43.40
2018-05-18T11:57:38.663Z,45.70
2018-05-18T12:01:42.845Z,45.10
2018-05-18T12:05:46.311Z,45.40
2018-05-18T12:09:49.145Z,45.40
2018-05-18T12:13:52.707Z,45.40
2018-05-18T12:17:57.832Z,45.40
2018-05-18T12:22:02.688Z,46.90
2018-05-18T12:26:06.455Z,46.90
2018-05-18T12:30:09.509Z,47.60
2018-05-18T12:34:13.313Z,45.40
2018-05-18T12:38:16.619Z,45.50
2018-05-18T12:42:20.573Z,44.10
2018-05-18T12:46:23.455Z,44.80
2018-05-18T12:50:26.244Z,41.00
2018-05-18T12:54:28.973Z,41.80
2018-05-18T12:58:31.716Z,42.30
2018-05-18T13:02:34.453Z,39.60
2018-05-18T13:06:37.172Z,40.10
2018-05-18T13:10:39.897Z,39.50
2018-05-18T13:14:43.731Z,41.20
2018-05-18T13:18:48.135Z,40.70
2018-05-18T13:22:51.109Z,40.20
2018-05-18T13:26:53.927Z,39.20
2018-05-18T13:30:56.860Z,38.00
2018-05-18T13:34:59.679Z,30.00
2018-05-18T13:39:02.833Z,25.20
2018-05-18T13:43:06.420Z,28.00
2018-05-18T13:47:09.149Z,28.00
2018-05-18T13:51:11.883Z,31.70
2018-05-18T13:55:16.967Z,29.50
2018-05-18T13:59:19.867Z,29.40
2018-05-18T14:03:22.601Z,31.10
2018-05-18T14:07:25.416Z,32.90
2018-05-18T14:11:28.169Z,36.00
2018-05-18T14:15:32.068Z,38.50
2018-05-18T14:19:35.117Z,43.40
2018-05-18T14:23:39.453Z,56.90
2018-05-18T14:27:42.254Z,56.30
2018-05-18T14:31:45.033Z,74.70
2018-05-18T14:35:48.646Z,90.20
2018-05-18T14:39:51.393Z,90.00
2018-05-18T14:43:54.671Z,91.70
2018-05-18T14:48:00.545Z,94.50
2018-05-18T14:52:03.921Z,94.30
2018-05-18T14:56:06.988Z,93.10
2018-05-18T15:00:10.642Z,96.00
2018-05-18T15:04:16.034Z,95.90
2018-05-18T15:08:19.504Z,96.40
2018-05-18T15:12:23.355Z,95.20
2018-05-18T15:16:26.806Z,96.30
2018-05-18T15:20:29.546Z,95.60
2018-05-18T15:24:32.259Z,95.00
2018-05-18T15:28:35.406Z,96.40
2018-05-18T15:32:39.416Z,94.70
2018-05-18T15:36:42.341Z,94.60
2018-05-18T15:40:46.388Z,95.20
2018-05-18T15:44:50.190Z,93.80
2018-05-18T15:48:54.000Z,94.30
2018-05-18T15:52:57.719Z,93.20
2018-05-18T15:57:02.104Z,92.20
2018-05-18T16:01:05.523Z,92.20
2018-05-18T16:05:08.369Z,90.70
2018-05-18T16:09:13.129Z,78.30
2018-05-18T16:13:17.935Z,78.60
2018-05-18T16:17:23.455Z,71.80
2018-05-18T16:21:27.336Z,71.80
2018-05-18T16:25:30.587Z,77.90
2018-05-18T16:29:33.413Z,86.10
2018-05-18T16:33:37.074Z,88.30
2018-05-18T16:37:40.761Z,90.90
2018-05-18T16:41:44.388Z,91.60
2018-05-18T16:45:48.055Z,91.50
2018-05-18T16:49:51.878Z,93.40
2018-05-18T16:53:55.584Z,93.50
2018-05-18T16:57:58.584Z,93.40
2018-05-18T17:02:01.334Z,94.30
2018-05-18T17:06:04.149Z,93.60
2018-05-18T17:10:07.958Z,95.00
2018-05-18T17:14:10.698Z,95.00
2018-05-18T17:18:13.640Z,95.40
2018-05-18T17:22:16.470Z,94.90
2018-05-18T17:26:20.220Z,95.10
2018-05-18T17:30:23.145Z,95.10
2018-05-18T17:34:26.672Z,94.80
2018-05-18T17:38:29.541Z,95.80
2018-05-18T17:42:33.254Z,96.90
2018-05-18T17:46:36.077Z,97.00
2018-05-18T17:50:38.851Z,95.10
2018-05-18T17:54:41.637Z,96.00
2018-05-18T17:58:44.546Z,96.20
2018-05-18T18:02:47.576Z,97.00
2018-05-18T18:06:50.372Z,97.10
2018-05-18T18:10:53.288Z,97.00
2018-05-18T18:14:56.183Z,96.90
2018-05-18T18:18:58.963Z,96.90
2018-05-18T18:23:02.746Z,97.60
2018-05-18T18:27:08.453Z,97.80
2018-05-18T18:31:11.622Z,97.80
2018-05-18T18:35:14.731Z,97.60
2018-05-18T18:39:17.922Z,97.50
2018-05-18T18:43:22.134Z,97.90
2018-05-18T18:47:25.036Z,97.60
2018-05-18T18:51:28.566Z,97.60
2018-05-18T18:55:32.279Z,97.60
2018-05-18T18:59:35.802Z,97.80
2018-05-18T19:03:39.398Z,98.20
2018-05-18T19:07:42.312Z,98.20
2018-05-18T19:11:46.052Z,98.30
2018-05-18T19:15:48.927Z,98.30
2018-05-18T19:19:52.491Z,98.50
2018-05-18T19:23:55.453Z,98.30
2018-05-18T19:27:59.128Z,98.60
2018-05-18T19:32:02.820Z,98.70
2018-05-18T19:36:05.923Z,98.70
2018-05-18T19:40:08.759Z,98.60
2018-05-18T19:44:11.515Z,98.70
2018-05-18T19:48:14.660Z,98.70
2018-05-18T19:52:17.402Z,98.70
2018-05-18T19:56:20.363Z,98.70
2018-05-18T20:00:23.275Z,98.80
2018-05-18T20:04:26.259Z,98.80
2018-05-18T20:08:29.191Z,98.90
2018-05-18T20:12:32.800Z,99.20
2018-05-18T20:16:36.919Z,99.20
2018-05-18T20:20:39.850Z,99.20
2018-05-18T20:24:43.698Z,99.30
2018-05-18T20:28:46.730Z,99.30
2018-05-18T20:32:49.607Z,99.30
2018-05-18T20:36:52.389Z,99.40
2018-05-18T20:40:55.304Z,99.50
2018-05-18T20:44:58.033Z,99.50
2018-05-18T20:49:00.870Z,99.60
2018-05-18T20:53:03.617Z,99.70
2018-05-18T20:57:06.372Z,99.70
2018-05-18T21:01:09.258Z,99.80
2018-05-18T21:05:12.833Z,99.80
2018-05-18T21:09:15.619Z,99.80
2018-05-18T21:13:18.370Z,99.80
2018-05-18T21:17:21.741Z,99.80
2018-05-18T21:21:24.638Z,99.90
2018-05-18T21:25:27.356Z,99.90
2018-05-18T21:29:30.229Z,99.80
2018-05-18T21:33:33.012Z,99.90
2018-05-18T21:37:35.865Z,99.90
2018-05-18T21:41:39.385Z,99.90
2018-05-18T21:45:43.023Z,99.90
2018-05-18T21:49:45.892Z,99.90
2018-05-18T21:53:48.664Z,99.90
2018-05-18T21:57:51.467Z,99.90
2018-05-18T22:01:54.198Z,99.90
2018-05-18T22:05:57.868Z,99.90
2018-05-18T22:10:01.472Z,99.90
2018-05-18T22:14:04.296Z,99.90
2018-05-18T22:18:07.086Z,99.90
2018-05-18T22:22:09.884Z,99.90
2018-05-18T22:26:13.437Z,99.90
2018-05-18T22:30:16.964Z,99.90
2018-05-18T22:34:19.721Z,99.90
2018-05-18T22:38:22.738Z,99.90
2018-05-18T22:42:25.567Z,99.90
2018-05-18T22:46:28.455Z,99.90
2018-05-18T22:50:32.142Z,99.90
2018-05-18T22:54:35.023Z,99.90
2018-05-18T22:58:37.938Z,99.90
2018-05-18T23:02:40.778Z,99.90
2018-05-18T23:06:44.549Z,99.90
2018-05-18T23:10:47.301Z,99.90
2018-05-18T23:14:50.123Z,99.90
2018-05-18T23:18:52.958Z,99.90
2018-05-18T23:23:01.812Z,99.90
2018-05-18T23:27:04.614Z,99.90
2018-05-18T23:31:08.233Z,99.90
2018-05-18T23:35:11.762Z,99.90
2018-05-18T23:39:14.719Z,99.90
2018-05-18T23:43:17.496Z,99.90
2018-05-18T23:47:20.332Z,99.90
2018-05-18T23:51:23.109Z,99.90
2018-05-18T23:55:25.904Z,99.90
2018-05-18T23:59:28.647Z,99.90
